createdAt,value
2023-03-15T00:00:28.816Z,82.17
2023-03-15T00:02:58.523Z,82.13
2023-03-15T00:05:28.152Z,81.44
2023-03-15T00:07:57.759Z,81.91
2023-03-15T00:10:30.003Z,81.62
2023-03-15T00:12:59.634Z,81.22
2023-03-15T00:15:29.740Z,80.67
2023-03-15T00:17:59.431Z,80.82
2023-03-15T00:20:29.108Z,80.86
2023-03-15T00:22:58.801Z,80.72
2023-03-15T00:25:31.179Z,81.06
2023-03-15T00:28:00.882Z,81.14
2023-03-15T00:30:30.842Z,80.49
2023-03-15T00:33:00.458Z,80.75
2023-03-15T00:35:30.298Z,80.95
2023-03-15T00:38:00.466Z,81.32
2023-03-15T00:40:32.694Z,80.71
2023-03-15T00:43:02.406Z,80.67
2023-03-15T00:45:32.212Z,81.17
2023-03-15T00:48:01.863Z,80.96
2023-03-15T00:50:31.509Z,80.61
2023-03-15T00:53:01.132Z,81.00
2023-03-15T00:55:33.940Z,81.13
2023-03-15T00:58:03.633Z,81.11
2023-03-15T01:00:33.423Z,80.72
2023-03-15T01:03:03.442Z,80.71
2023-03-15T01:05:33.110Z,80.71
2023-03-15T01:08:03.176Z,81.23
2023-03-15T01:10:37.546Z,80.97
2023-03-15T01:13:07.442Z,79.74
2023-03-15T01:15:37.163Z,79.35
2023-03-15T01:18:06.936Z,78.89
2023-03-15T01:20:36.590Z,79.08
2023-03-15T01:23:06.253Z,79.30
2023-03-15T01:25:38.608Z,79.39
2023-03-15T01:28:08.462Z,78.94
2023-03-15T01:30:38.528Z,78.71
2023-03-15T01:33:08.239Z,78.59
2023-03-15T01:35:37.922Z,77.45
2023-03-15T01:38:07.612Z,77.45
2023-03-15T01:40:44.051Z,78.46
2023-03-15T01:43:19.392Z,78.32
2023-03-15T01:46:09.234Z,78.00
2023-03-15T01:48:46.761Z,78.22
2023-03-15T01:51:25.999Z,78.53
2023-03-15T01:54:00.316Z,77.80
2023-03-15T01:56:34.373Z,77.94
2023-03-15T01:59:08.327Z,78.57
2023-03-15T02:01:39.711Z,78.54
2023-03-15T02:04:13.687Z,78.88
2023-03-15T02:06:49.357Z,79.37
2023-03-15T02:09:22.200Z,79.66
2023-03-15T02:11:54.578Z,79.96
2023-03-15T02:14:25.045Z,80.32
2023-03-15T02:16:55.268Z,80.38
2023-03-15T02:19:39.531Z,80.48
2023-03-15T02:22:19.268Z,81.37
2023-03-15T02:24:57.709Z,82.32
2023-03-15T02:27:34.538Z,83.47
2023-03-15T02:30:05.681Z,84.08
2023-03-15T02:32:35.578Z,84.71
2023-03-15T02:35:05.354Z,85.62
2023-03-15T02:37:35.104Z,84.91
2023-03-15T02:40:05.911Z,85.88
2023-03-15T02:42:38.195Z,85.90
2023-03-15T02:45:09.169Z,86.30
2023-03-15T02:47:39.019Z,86.96
2023-03-15T02:50:10.489Z,87.37
2023-03-15T02:52:40.165Z,87.73
2023-03-15T02:55:11.214Z,88.00
2023-03-15T02:57:43.498Z,88.36
2023-03-15T03:00:16.196Z,89.45
2023-03-15T03:02:49.734Z,89.26
2023-03-15T03:05:19.876Z,89.99
2023-03-15T03:07:50.545Z,91.13
2023-03-15T03:10:22.804Z,92.35
2023-03-15T03:12:58.309Z,92.43
2023-03-15T03:15:36.741Z,93.26
2023-03-15T03:18:06.705Z,94.18
2023-03-15T03:20:36.451Z,94.24
2023-03-15T03:23:06.179Z,94.53
2023-03-15T03:25:36.743Z,95.70
2023-03-15T03:28:09.154Z,95.88
2023-03-15T03:30:39.036Z,95.58
2023-03-15T03:33:09.333Z,95.63
2023-03-15T03:35:39.046Z,95.86
2023-03-15T03:38:08.766Z,96.21
2023-03-15T03:40:42.587Z,95.44
2023-03-15T03:43:14.935Z,94.93
2023-03-15T03:45:44.580Z,96.02
2023-03-15T03:48:14.909Z,96.34
2023-03-15T03:50:44.584Z,96.61
2023-03-15T03:53:14.635Z,96.48
2023-03-15T03:55:44.324Z,96.46
2023-03-15T03:58:22.345Z,95.77
2023-03-15T04:01:01.061Z,96.62
2023-03-15T04:03:34.088Z,95.83
2023-03-15T04:06:14.016Z,95.89
2023-03-15T04:08:47.196Z,96.76
2023-03-15T04:11:29.384Z,96.57
2023-03-15T04:14:05.269Z,96.93
2023-03-15T04:16:35.823Z,96.40
2023-03-15T04:19:09.513Z,95.33
2023-03-15T04:21:39.699Z,96.63
2023-03-15T04:24:21.144Z,96.78
2023-03-15T04:27:02.738Z,96.52
2023-03-15T04:29:53.351Z,97.47
2023-03-15T04:32:42.617Z,97.66
2023-03-15T04:35:20.574Z,96.62
2023-03-15T04:38:00.111Z,98.18
2023-03-15T04:40:48.610Z,97.45
2023-03-15T04:43:26.383Z,97.05
2023-03-15T04:46:11.146Z,97.30
2023-03-15T04:49:00.307Z,96.02
2023-03-15T04:51:43.708Z,96.20
2023-03-15T04:54:36.132Z,96.79
2023-03-15T04:57:18.185Z,96.72
2023-03-15T05:00:08.491Z,97.00
2023-03-15T05:02:54.949Z,96.38
2023-03-15T05:05:35.195Z,94.92
2023-03-15T05:08:17.189Z,95.20
2023-03-15T05:11:01.734Z,95.00
2023-03-15T05:13:47.920Z,95.99
2023-03-15T05:16:20.564Z,95.94
2023-03-15T05:19:05.591Z,96.02
2023-03-15T05:21:46.465Z,95.76
2023-03-15T05:24:45.335Z,96.61
2023-03-15T05:27:34.050Z,95.21
2023-03-15T05:30:15.081Z,95.64
2023-03-15T05:33:07.778Z,96.40
2023-03-15T05:35:47.517Z,96.37
2023-03-15T05:38:36.929Z,96.01
2023-03-15T05:41:32.497Z,95.97
2023-03-15T05:44:33.914Z,95.67
2023-03-15T05:47:21.870Z,95.85
2023-03-15T05:50:05.317Z,96.13
2023-03-15T05:53:06.628Z,95.07
2023-03-15T05:55:54.592Z,95.59
2023-03-15T05:58:43.307Z,94.42
2023-03-15T06:01:16.019Z,94.17
2023-03-15T06:04:10.686Z,93.47
2023-03-15T06:06:40.791Z,93.12
2023-03-15T06:09:15.504Z,94.50
2023-03-15T06:11:47.876Z,94.93
2023-03-15T06:14:17.546Z,94.51
2023-03-15T06:16:55.489Z,94.75
2023-03-15T06:19:26.714Z,94.96
2023-03-15T06:21:57.512Z,94.39
2023-03-15T06:24:42.284Z,94.38
2023-03-15T06:27:12.176Z,94.51
2023-03-15T06:29:42.016Z,94.71
2023-03-15T06:32:12.478Z,95.29
2023-03-15T06:34:45.429Z,94.75
2023-03-15T06:37:28.837Z,94.69
2023-03-15T06:40:06.068Z,94.17
2023-03-15T06:42:36.277Z,94.70
2023-03-15T06:45:07.141Z,94.96
2023-03-15T06:47:37.052Z,94.54
2023-03-15T06:50:08.281Z,94.20
2023-03-15T06:52:38.857Z,94.97
2023-03-15T06:55:17.217Z,95.02
2023-03-15T06:57:47.481Z,95.42
2023-03-15T07:00:18.640Z,95.28
2023-03-15T07:02:48.357Z,95.10
2023-03-15T07:05:18.379Z,94.69
2023-03-15T07:07:49.320Z,94.66
2023-03-15T07:35:13.008Z,94.76
2023-03-15T07:38:15.235Z,94.47
2023-03-15T07:41:02.006Z,93.74
2023-03-15T07:47:56.535Z,93.61
2023-03-15T07:54:24.996Z,93.17
2023-03-15T07:59:12.009Z,91.48
2023-03-15T08:02:20.135Z,91.93
2023-03-15T08:05:00.716Z,91.99
2023-03-15T08:07:33.988Z,92.17
2023-03-15T08:10:06.174Z,91.95
2023-03-15T08:12:36.519Z,91.17
2023-03-15T08:15:07.390Z,90.79
2023-03-15T08:17:39.586Z,90.59
2023-03-15T08:20:14.742Z,90.03
2023-03-15T08:22:49.269Z,88.16
2023-03-15T08:25:23.996Z,88.10
2023-03-15T08:27:56.549Z,89.25
2023-03-15T08:30:28.634Z,88.52
2023-03-15T08:33:00.456Z,88.14
2023-03-15T08:35:33.515Z,87.00
2023-03-15T08:38:09.965Z,86.68
2023-03-15T08:40:45.200Z,88.55
2023-03-15T08:43:15.955Z,88.00
2023-03-15T08:46:00.065Z,86.90
2023-03-15T08:48:35.532Z,86.18
2023-03-15T08:51:07.001Z,86.67
2023-03-15T08:53:41.434Z,86.67
2023-03-15T08:56:12.425Z,86.96
2023-03-15T08:58:43.977Z,87.16
2023-03-15T09:01:14.876Z,86.19
2023-03-15T09:03:46.187Z,85.20
2023-03-15T09:06:16.905Z,84.54
2023-03-15T09:09:07.691Z,84.07
2023-03-15T09:11:38.951Z,84.41
2023-03-15T09:16:08.455Z,83.95
2023-03-15T09:18:50.646Z,84.91
2023-03-15T09:21:39.811Z,84.98
2023-03-15T09:24:20.515Z,84.89
2023-03-15T09:26:58.694Z,82.89
2023-03-15T09:29:34.403Z,81.30
2023-03-15T09:32:04.748Z,79.80
2023-03-15T09:34:59.068Z,79.80
2023-03-15T09:37:54.282Z,77.50
2023-03-15T09:40:31.229Z,78.06
2023-03-15T09:43:15.939Z,74.67
2023-03-15T09:46:03.140Z,73.00
2023-03-15T09:48:38.866Z,71.88
2023-03-15T09:51:20.988Z,71.64
2023-03-15T09:54:07.030Z,71.80
2023-03-15T09:56:42.528Z,72.65
2023-03-15T09:59:12.760Z,70.82
2023-03-15T10:01:44.284Z,69.98
2023-03-15T10:04:21.660Z,69.01
2023-03-15T10:06:59.731Z,69.46
2023-03-15T10:09:35.832Z,68.94
2023-03-15T10:12:12.076Z,68.49
2023-03-15T10:15:19.781Z,66.26
2023-03-15T10:18:00.298Z,66.46
2023-03-15T10:20:34.329Z,66.68
2023-03-15T10:23:11.594Z,65.57
2023-03-15T10:25:44.578Z,64.94
2023-03-15T10:28:27.090Z,65.46
2023-03-15T10:31:01.656Z,61.86
2023-03-15T10:33:34.907Z,62.78
2023-03-15T10:36:13.533Z,61.79
2023-03-15T10:38:43.868Z,62.66
2023-03-15T10:41:23.477Z,62.50
2023-03-15T10:44:05.060Z,62.35
2023-03-15T10:46:35.516Z,61.55
2023-03-15T10:49:13.528Z,60.72
2023-03-15T10:51:45.322Z,62.86
2023-03-15T10:54:18.013Z,63.21
2023-03-15T10:56:50.803Z,62.87
2023-03-15T10:59:25.213Z,63.16
2023-03-15T11:01:56.694Z,62.64
2023-03-15T11:04:32.537Z,60.13
2023-03-15T11:07:07.840Z,60.33
2023-03-15T11:09:43.366Z,60.75
2023-03-15T11:12:19.573Z,60.99
2023-03-15T11:14:54.039Z,60.90
2023-03-15T11:17:26.470Z,62.28
2023-03-15T11:19:59.658Z,62.41
2023-03-15T11:22:30.216Z,62.29
2023-03-15T11:25:00.003Z,61.21
2023-03-15T11:27:31.878Z,59.57
2023-03-15T11:30:04.795Z,57.17
2023-03-15T11:32:35.772Z,55.44
2023-03-15T11:35:08.176Z,56.32
2023-03-15T11:37:44.549Z,56.94
2023-03-15T11:40:22.163Z,55.75
2023-03-15T11:42:57.527Z,55.97
2023-03-15T11:45:34.399Z,55.42
2023-03-15T11:48:29.350Z,54.04
2023-03-15T11:51:00.977Z,54.70
2023-03-15T11:53:36.898Z,52.27
2023-03-15T11:56:24.527Z,52.33
2023-03-15T11:59:08.680Z,50.94
2023-03-15T12:01:45.418Z,51.41
2023-03-15T12:04:44.880Z,50.91
2023-03-15T12:07:34.663Z,50.69
2023-03-15T12:10:32.354Z,50.32
2023-03-15T12:13:09.327Z,51.03
2023-03-15T12:15:48.261Z,51.57
2023-03-15T12:18:24.918Z,61.37
2023-03-15T12:21:07.870Z,71.38
2023-03-15T12:23:42.836Z,77.76
2023-03-15T12:26:25.513Z,81.13
2023-03-15T12:29:07.444Z,84.13
2023-03-15T12:31:55.246Z,85.61
2023-03-15T12:34:40.232Z,86.14
2023-03-15T12:37:15.803Z,88.00
2023-03-15T12:39:50.642Z,87.54
2023-03-15T12:42:59.451Z,89.18
2023-03-15T12:45:49.339Z,90.50
2023-03-15T12:48:29.458Z,90.43
2023-03-15T12:51:04.449Z,90.94
2023-03-15T12:53:48.730Z,92.57
2023-03-15T12:56:43.179Z,92.63
2023-03-15T12:59:23.517Z,92.84
2023-03-15T13:01:54.131Z,94.83
2023-03-15T13:04:24.620Z,95.48
2023-03-15T13:07:04.949Z,94.43
2023-03-15T13:09:57.314Z,93.36
2023-03-15T13:12:31.999Z,93.92
2023-03-15T13:15:09.167Z,94.30
2023-03-15T13:17:45.334Z,92.17
2023-03-15T13:20:27.668Z,90.72
2023-03-15T13:23:09.352Z,87.52
2023-03-15T13:25:47.066Z,86.76
2023-03-15T13:28:25.183Z,84.14
2023-03-15T13:30:57.695Z,82.98
2023-03-15T13:33:29.832Z,81.31
2023-03-15T13:36:01.494Z,82.78
2023-03-15T13:38:36.982Z,82.22
2023-03-15T13:41:08.399Z,80.34
2023-03-15T13:43:40.514Z,78.25
2023-03-15T13:46:10.297Z,77.83
2023-03-15T13:48:44.287Z,77.95
2023-03-15T13:51:22.751Z,76.94
2023-03-15T13:53:58.087Z,74.12
2023-03-15T13:56:43.564Z,73.95
2023-03-15T13:59:18.912Z,72.26
2023-03-15T14:01:48.875Z,73.32
2023-03-15T14:04:21.030Z,73.92
2023-03-15T14:06:51.299Z,73.46
2023-03-15T14:09:26.007Z,73.09
2023-03-15T14:12:06.760Z,72.89
2023-03-15T14:14:41.240Z,72.44
2023-03-15T14:17:22.290Z,71.58
2023-03-15T14:19:59.432Z,69.73
2023-03-15T14:22:29.271Z,71.82
2023-03-15T14:25:01.546Z,68.43
2023-03-15T14:27:31.614Z,67.06
2023-03-15T14:30:03.160Z,67.74
2023-03-15T14:32:35.200Z,66.87
2023-03-15T14:35:09.041Z,67.35
2023-03-15T14:37:41.530Z,65.65
2023-03-15T14:40:21.097Z,64.76
2023-03-15T14:42:52.631Z,65.13
2023-03-15T14:45:24.015Z,65.71
2023-03-15T14:47:57.776Z,67.15
2023-03-15T14:50:30.956Z,66.08
2023-03-15T14:53:01.674Z,64.63
2023-03-15T14:55:36.411Z,65.20
2023-03-15T14:58:07.002Z,65.11
2023-03-15T15:00:36.761Z,64.18
2023-03-15T15:03:10.556Z,64.70
2023-03-15T15:05:40.192Z,64.61
2023-03-15T15:08:13.580Z,64.87
2023-03-15T15:10:48.653Z,64.45
2023-03-15T15:13:21.358Z,66.12
2023-03-15T15:15:56.166Z,66.90
2023-03-15T15:18:27.617Z,66.98
2023-03-15T15:20:58.401Z,66.82
2023-03-15T15:23:30.987Z,67.80
2023-03-15T15:26:05.202Z,65.93
2023-03-15T15:28:37.667Z,61.18
2023-03-15T15:31:09.370Z,61.12
2023-03-15T15:33:39.058Z,60.65
2023-03-15T15:36:14.806Z,60.48
2023-03-15T15:38:45.588Z,60.30
2023-03-15T15:41:26.253Z,59.01
2023-03-15T15:43:56.559Z,59.71
2023-03-15T15:46:26.715Z,60.04
2023-03-15T15:48:58.893Z,61.15
2023-03-15T15:51:31.821Z,62.26
2023-03-15T15:54:03.638Z,59.85
2023-03-15T15:56:40.160Z,59.86
2023-03-15T15:59:15.036Z,59.77
2023-03-15T16:01:59.126Z,60.56
2023-03-15T16:04:30.240Z,60.42
2023-03-15T16:07:02.641Z,59.10
2023-03-15T16:09:36.209Z,58.35
2023-03-15T16:12:15.432Z,58.89
2023-03-15T16:14:45.276Z,56.52
2023-03-15T16:17:19.087Z,57.80
2023-03-15T16:19:49.008Z,58.08
2023-03-15T16:22:19.971Z,58.09
2023-03-15T16:24:53.087Z,58.45
2023-03-15T16:27:28.665Z,58.56
2023-03-15T16:29:58.875Z,59.10
2023-03-15T16:32:43.360Z,58.87
2023-03-15T16:35:16.498Z,59.75
2023-03-15T16:37:48.674Z,60.06
2023-03-15T16:40:24.230Z,61.23
2023-03-15T16:42:57.352Z,61.74
2023-03-15T16:45:27.870Z,61.19
2023-03-15T16:47:58.421Z,60.32
2023-03-15T16:50:28.852Z,60.46
2023-03-15T16:53:00.895Z,59.75
2023-03-15T16:55:33.987Z,59.09
2023-03-15T16:58:14.227Z,59.66
2023-03-15T17:00:46.729Z,60.06
2023-03-15T17:03:17.937Z,60.14
2023-03-15T17:05:49.550Z,61.20
2023-03-15T17:08:22.637Z,62.79
2023-03-15T17:10:52.670Z,64.05
2023-03-15T17:13:29.875Z,64.56
2023-03-15T17:15:59.776Z,65.19
2023-03-15T17:18:30.817Z,65.83
2023-03-15T17:21:00.780Z,66.00
2023-03-15T17:23:30.863Z,66.28
2023-03-15T17:26:00.927Z,67.21
2023-03-15T17:28:33.209Z,67.01
2023-03-15T17:31:23.558Z,67.11
2023-03-15T17:33:52.902Z,67.48
2023-03-15T17:36:25.025Z,67.66
2023-03-15T17:38:56.901Z,67.75
2023-03-15T17:41:30.501Z,66.97
2023-03-15T17:44:03.234Z,67.26
2023-03-15T17:46:33.379Z,67.20
2023-03-15T17:49:04.215Z,67.51
2023-03-15T17:51:35.972Z,67.46
2023-03-15T17:54:15.684Z,67.47
2023-03-15T17:56:45.371Z,68.60
2023-03-15T17:59:17.587Z,69.51
2023-03-15T18:01:48.899Z,69.55
2023-03-15T18:04:19.052Z,69.60
2023-03-15T18:06:48.914Z,70.31
2023-03-15T18:09:18.572Z,70.39
2023-03-15T18:11:48.362Z,70.55
2023-03-15T18:14:21.056Z,70.78
2023-03-15T18:16:52.616Z,71.20
2023-03-15T18:19:22.486Z,70.78
2023-03-15T18:21:52.162Z,71.02
2023-03-15T18:24:21.917Z,70.92
2023-03-15T18:26:52.861Z,71.04
2023-03-15T18:29:25.626Z,71.29
2023-03-15T18:31:55.298Z,72.36
2023-03-15T18:34:25.069Z,72.39
2023-03-15T18:36:55.107Z,71.64
2023-03-15T18:39:25.380Z,71.95
2023-03-15T18:41:54.996Z,72.18
2023-03-15T18:44:27.788Z,72.30
2023-03-15T18:46:57.969Z,72.46
2023-03-15T18:49:27.625Z,72.33
2023-03-15T18:51:57.220Z,72.36
2023-03-15T18:54:26.951Z,72.08
2023-03-15T18:56:56.562Z,72.25
2023-03-15T18:59:28.832Z,72.33
2023-03-15T19:01:59.103Z,72.65
2023-03-15T19:04:29.428Z,72.14
2023-03-15T19:06:59.076Z,72.10
2023-03-15T19:09:29.366Z,71.82
2023-03-15T19:11:59.587Z,72.06
2023-03-15T19:14:31.863Z,71.62
2023-03-15T19:17:02.223Z,72.55
2023-03-15T19:19:32.108Z,71.92
2023-03-15T19:22:01.778Z,71.61
2023-03-15T19:24:33.233Z,71.68
2023-03-15T19:27:03.109Z,71.97
2023-03-15T19:29:35.985Z,72.08
2023-03-15T19:32:06.498Z,72.07
2023-03-15T19:34:36.762Z,72.14
2023-03-15T19:37:07.483Z,72.48
2023-03-15T19:39:37.954Z,72.35
2023-03-15T19:42:08.325Z,72.96
2023-03-15T19:44:41.488Z,72.89
2023-03-15T19:47:12.005Z,72.76
2023-03-15T19:49:41.927Z,72.33
2023-03-15T19:52:15.854Z,72.73
2023-03-15T19:54:47.199Z,72.88
2023-03-15T19:57:17.808Z,73.04
2023-03-15T19:59:50.129Z,72.80
2023-03-15T20:02:19.856Z,72.51
2023-03-15T20:04:49.504Z,72.67
2023-03-15T20:07:20.207Z,72.76
2023-03-15T20:09:49.879Z,72.62
2023-03-15T20:12:19.619Z,73.27
2023-03-15T20:14:52.070Z,73.33
2023-03-15T20:17:22.965Z,73.43
2023-03-15T20:19:53.148Z,73.33
2023-03-15T20:22:23.164Z,73.46
2023-03-15T20:24:52.830Z,73.27
2023-03-15T20:27:22.592Z,73.88
2023-03-15T20:29:56.639Z,73.78
2023-03-15T20:32:26.348Z,74.07
2023-03-15T20:34:57.443Z,73.70
2023-03-15T20:37:28.402Z,73.87
2023-03-15T20:39:58.331Z,73.71
2023-03-15T20:42:28.020Z,73.51
2023-03-15T20:45:00.235Z,73.71
2023-03-15T20:47:29.964Z,73.43
2023-03-15T20:50:00.273Z,73.66
2023-03-15T20:52:30.209Z,73.34
2023-03-15T20:54:59.887Z,73.17
2023-03-15T20:57:29.573Z,73.79
2023-03-15T21:00:02.291Z,73.22
2023-03-15T21:02:33.136Z,73.14
2023-03-15T21:05:02.826Z,73.44
2023-03-15T21:07:32.902Z,73.40
2023-03-15T21:10:02.605Z,73.24
2023-03-15T21:12:32.935Z,73.47
2023-03-15T21:15:05.299Z,73.37
2023-03-15T21:17:35.150Z,73.50
2023-03-15T21:20:07.298Z,73.19
2023-03-15T21:22:37.192Z,73.13
2023-03-15T21:25:08.475Z,73.14
2023-03-15T21:27:38.207Z,73.40
2023-03-15T21:30:13.956Z,73.22
2023-03-15T21:32:44.754Z,72.83
2023-03-15T21:35:17.182Z,73.16
2023-03-15T21:37:46.923Z,73.03
2023-03-15T21:40:18.199Z,72.74
2023-03-15T21:42:48.004Z,73.01
2023-03-15T21:45:23.199Z,72.75
2023-03-15T21:47:52.908Z,73.10
2023-03-15T21:50:23.464Z,72.95
2023-03-15T21:52:53.900Z,72.96
2023-03-15T21:55:25.181Z,72.57
2023-03-15T21:57:54.868Z,72.83
2023-03-15T22:00:27.293Z,72.84
2023-03-15T22:02:57.112Z,72.91
2023-03-15T22:05:27.480Z,73.09
2023-03-15T22:07:57.126Z,73.18
2023-03-15T22:10:27.178Z,73.33
2023-03-15T22:12:57.030Z,73.56
2023-03-15T22:15:29.381Z,73.32
2023-03-15T22:17:59.038Z,73.38
2023-03-15T22:20:28.712Z,73.27
2023-03-15T22:22:58.342Z,73.23
2023-03-15T22:25:28.025Z,73.19
2023-03-15T22:27:57.712Z,73.43
2023-03-15T22:30:30.100Z,73.09
2023-03-15T22:32:59.877Z,73.02
2023-03-15T22:35:29.724Z,72.75
2023-03-15T22:37:59.430Z,72.83
2023-03-15T22:40:30.544Z,72.98
2023-03-15T22:43:00.324Z,73.16
2023-03-15T22:45:32.626Z,73.00
2023-03-15T22:48:02.866Z,73.06
2023-03-15T22:50:33.972Z,73.06
2023-03-15T22:53:03.600Z,72.82
2023-03-15T22:55:33.269Z,72.93
2023-03-15T22:58:03.100Z,72.94
2023-03-15T23:00:35.395Z,72.63
2023-03-15T23:03:05.033Z,73.27
2023-03-15T23:05:34.846Z,72.95
2023-03-15T23:08:04.457Z,72.89
2023-03-15T23:10:34.129Z,72.89
2023-03-15T23:13:03.789Z,73.01
2023-03-15T23:15:36.084Z,73.00
2023-03-15T23:18:05.869Z,72.99
2023-03-15T23:20:37.579Z,73.28
2023-03-15T23:23:07.472Z,73.15
2023-03-15T23:25:40.684Z,73.06
2023-03-15T23:28:10.635Z,72.97
2023-03-15T23:30:45.711Z,72.85
2023-03-15T23:33:15.505Z,72.57
2023-03-15T23:35:45.176Z,72.53
2023-03-15T23:38:15.133Z,72.64
2023-03-15T23:40:44.792Z,72.66
2023-03-15T23:43:14.418Z,72.72
2023-03-15T23:45:46.644Z,72.40
2023-03-15T23:48:16.300Z,72.49
2023-03-15T23:50:45.930Z,72.94
2023-03-15T23:53:15.547Z,72.94
2023-03-15T23:55:45.336Z,73.21
2023-03-15T23:58:15.061Z,73.02
